sensor_id;sensor_type;location;lat;lon;timestamp;pressure;altitude;pressure_sealevel;temperature
68911;BMP180;55953;51.650;-0.522;2022-10-20T00:01:27;100202.00;;;15.70
68911;BMP180;55953;51.650;-0.522;2022-10-20T00:03:55;100210.80;;;15.80
68911;BMP180;55953;51.650;-0.522;2022-10-20T00:06:27;100206.00;;;15.80
68911;BMP180;55953;51.650;-0.522;2022-10-20T00:08:59;100202.40;;;15.80
68911;BMP180;55953;51.650;-0.522;2022-10-20T00:11:29;100188.20;;;15.80
68911;BMP180;55953;51.650;-0.522;2022-10-20T00:13:59;100179.80;;;15.80
68911;BMP180;55953;51.650;-0.522;2022-10-20T00:16:31;100171.60;;;15.80
68911;BMP180;55953;51.650;-0.522;2022-10-20T00:19:01;100167.00;;;15.80
68911;BMP180;55953;51.650;-0.522;2022-10-20T00:21:30;100158.00;;;15.80
68911;BMP180;55953;51.650;-0.522;2022-10-20T00:24:00;100167.00;;;15.90
68911;BMP180;55953;51.650;-0.522;2022-10-20T00:26:30;100161.40;;;15.90
68911;BMP180;55953;51.650;-0.522;2022-10-20T00:29:01;100155.20;;;15.82
68911;BMP180;55953;51.650;-0.522;2022-10-20T00:31:30;100146.60;;;15.80
68911;BMP180;55953;51.650;-0.522;2022-10-20T00:33:58;100153.40;;;15.80
68911;BMP180;55953;51.650;-0.522;2022-10-20T00:36:26;100149.20;;;15.80
68911;BMP180;55953;51.650;-0.522;2022-10-20T00:39:03;100149.40;;;15.80
68911;BMP180;55953;51.650;-0.522;2022-10-20T00:41:32;100141.20;;;15.80
68911;BMP180;55953;51.650;-0.522;2022-10-20T00:47:15;100135.00;;;15.82
68911;BMP180;55953;51.650;-0.522;2022-10-20T00:49:44;100133.00;;;15.80
68911;BMP180;55953;51.650;-0.522;2022-10-20T00:52:15;100129.60;;;15.80
68911;BMP180;55953;51.650;-0.522;2022-10-20T00:54:47;100135.00;;;15.80
68911;BMP180;55953;51.650;-0.522;2022-10-20T00:57:15;100138.20;;;15.80
68911;BMP180;55953;51.650;-0.522;2022-10-20T00:59:44;100151.80;;;15.80
68911;BMP180;55953;51.650;-0.522;2022-10-20T01:02:13;100153.00;;;15.90
68911;BMP180;55953;51.650;-0.522;2022-10-20T01:04:41;100152.00;;;15.90
68911;BMP180;55953;51.650;-0.522;2022-10-20T01:07:09;100148.60;;;15.88
68911;BMP180;55953;51.650;-0.522;2022-10-20T01:09:37;100141.20;;;15.84
68911;BMP180;55953;51.650;-0.522;2022-10-20T01:15:16;100131.00;;;15.80
68911;BMP180;55953;51.650;-0.522;2022-10-20T01:23:58;100133.00;;;15.80
68911;BMP180;55953;51.650;-0.522;2022-10-20T01:30:08;100130.00;;;15.88
68911;BMP180;55953;51.650;-0.522;2022-10-20T01:32:46;100124.60;;;15.90
68911;BMP180;55953;51.650;-0.522;2022-10-20T01:43:49;100102.20;;;15.90
68911;BMP180;55953;51.650;-0.522;2022-10-20T01:46:23;100104.20;;;15.90
68911;BMP180;55953;51.650;-0.522;2022-10-20T01:48:53;100108.20;;;15.80
68911;BMP180;55953;51.650;-0.522;2022-10-20T01:51:22;100110.80;;;15.86
68911;BMP180;55953;51.650;-0.522;2022-10-20T01:53:49;100108.60;;;15.80
68911;BMP180;55953;51.650;-0.522;2022-10-20T01:56:35;100109.80;;;15.80
68911;BMP180;55953;51.650;-0.522;2022-10-20T02:08:28;100079.80;;;15.70
68911;BMP180;55953;51.650;-0.522;2022-10-20T02:11:02;100081.60;;;15.72
68911;BMP180;55953;51.650;-0.522;2022-10-20T02:13:36;100070.80;;;15.76
68911;BMP180;55953;51.650;-0.522;2022-10-20T02:16:16;100062.80;;;15.70
68911;BMP180;55953;51.650;-0.522;2022-10-20T02:18:46;100061.60;;;15.70
68911;BMP180;55953;51.650;-0.522;2022-10-20T02:21:15;100065.60;;;15.70
68911;BMP180;55953;51.650;-0.522;2022-10-20T02:23:46;100069.00;;;15.78
68911;BMP180;55953;51.650;-0.522;2022-10-20T02:26:20;100071.20;;;15.80
68911;BMP180;55953;51.650;-0.522;2022-10-20T02:28:56;100075.60;;;15.80
68911;BMP180;55953;51.650;-0.522;2022-10-20T02:31:25;100078.00;;;15.80
68911;BMP180;55953;51.650;-0.522;2022-10-20T02:33:55;100086.80;;;15.80
68911;BMP180;55953;51.650;-0.522;2022-10-20T02:36:27;100084.20;;;15.80
68911;BMP180;55953;51.650;-0.522;2022-10-20T02:38:56;100080.40;;;15.80
68911;BMP180;55953;51.650;-0.522;2022-10-20T02:41:24;100079.40;;;15.80
68911;BMP180;55953;51.650;-0.522;2022-10-20T02:43:53;100074.20;;;15.90
68911;BMP180;55953;51.650;-0.522;2022-10-20T02:46:22;100065.40;;;15.90
68911;BMP180;55953;51.650;-0.522;2022-10-20T02:48:50;100060.80;;;15.90
68911;BMP180;55953;51.650;-0.522;2022-10-20T02:51:18;100058.40;;;15.90
68911;BMP180;55953;51.650;-0.522;2022-10-20T02:53:47;100049.60;;;15.82
68911;BMP180;55953;51.650;-0.522;2022-10-20T02:56:16;100046.20;;;15.80
68911;BMP180;55953;51.650;-0.522;2022-10-20T02:58:44;100043.00;;;15.90
68911;BMP180;55953;51.650;-0.522;2022-10-20T03:01:12;100046.80;;;15.80
68911;BMP180;55953;51.650;-0.522;2022-10-20T03:03:40;100047.80;;;15.80
68911;BMP180;55953;51.650;-0.522;2022-10-20T03:06:14;100047.00;;;15.88
68911;BMP180;55953;51.650;-0.522;2022-10-20T03:08:42;100042.20;;;15.90
68911;BMP180;55953;51.650;-0.522;2022-10-20T03:11:10;100039.80;;;16.00
68911;BMP180;55953;51.650;-0.522;2022-10-20T03:13:38;100040.00;;;16.00
68911;BMP180;55953;51.650;-0.522;2022-10-20T03:16:07;100027.60;;;16.00
68911;BMP180;55953;51.650;-0.522;2022-10-20T03:18:35;100022.40;;;15.90
68911;BMP180;55953;51.650;-0.522;2022-10-20T03:21:03;100029.80;;;15.96
68911;BMP180;55953;51.650;-0.522;2022-10-20T03:23:31;100028.80;;;16.00
68911;BMP180;55953;51.650;-0.522;2022-10-20T03:26:05;100022.40;;;16.00
68911;BMP180;55953;51.650;-0.522;2022-10-20T03:28:34;100018.20;;;15.90
68911;BMP180;55953;51.650;-0.522;2022-10-20T03:31:02;100007.40;;;15.94
68911;BMP180;55953;51.650;-0.522;2022-10-20T03:33:31;100000.40;;;16.10
68911;BMP180;55953;51.650;-0.522;2022-10-20T03:35:59;99997.60;;;16.10
68911;BMP180;55953;51.650;-0.522;2022-10-20T03:38:27;99997.80;;;16.10
68911;BMP180;55953;51.650;-0.522;2022-10-20T03:40:55;100003.00;;;16.10
68911;BMP180;55953;51.650;-0.522;2022-10-20T03:43:23;99999.00;;;16.04
68911;BMP180;55953;51.650;-0.522;2022-10-20T03:46:04;100003.40;;;16.10
68911;BMP180;55953;51.650;-0.522;2022-10-20T03:48:33;100000.40;;;16.10
68911;BMP180;55953;51.650;-0.522;2022-10-20T03:51:03;100007.20;;;16.10
68911;BMP180;55953;51.650;-0.522;2022-10-20T03:53:31;100003.00;;;16.10
68911;BMP180;55953;51.650;-0.522;2022-10-20T03:56:17;99996.00;;;16.02
68911;BMP180;55953;51.650;-0.522;2022-10-20T03:58:46;99998.40;;;16.00
68911;BMP180;55953;51.650;-0.522;2022-10-20T04:01:16;99996.00;;;16.00
68911;BMP180;55953;51.650;-0.522;2022-10-20T04:03:45;99988.80;;;16.02
68911;BMP180;55953;51.650;-0.522;2022-10-20T04:06:14;99988.80;;;16.00
68911;BMP180;55953;51.650;-0.522;2022-10-20T04:08:42;99991.80;;;16.00
68911;BMP180;55953;51.650;-0.522;2022-10-20T04:11:10;99987.80;;;16.10
68911;BMP180;55953;51.650;-0.522;2022-10-20T04:13:38;99993.80;;;16.10
68911;BMP180;55953;51.650;-0.522;2022-10-20T04:16:07;99993.00;;;16.14
68911;BMP180;55953;51.650;-0.522;2022-10-20T04:18:35;99992.80;;;16.20
68911;BMP180;55953;51.650;-0.522;2022-10-20T04:21:03;99981.40;;;16.10
68911;BMP180;55953;51.650;-0.522;2022-10-20T04:23:31;99981.40;;;16.10
68911;BMP180;55953;51.650;-0.522;2022-10-20T04:25:59;99978.80;;;16.10
68911;BMP180;55953;51.650;-0.522;2022-10-20T04:28:28;99980.20;;;16.10
68911;BMP180;55953;51.650;-0.522;2022-10-20T04:30:59;99983.60;;;16.00
68911;BMP180;55953;51.650;-0.522;2022-10-20T04:33:26;99972.80;;;16.00
68911;BMP180;55953;51.650;-0.522;2022-10-20T04:36:05;99971.00;;;16.00
68911;BMP180;55953;51.650;-0.522;2022-10-20T04:38:34;99962.60;;;16.00
68911;BMP180;55953;51.650;-0.522;2022-10-20T04:41:03;99957.40;;;16.00
68911;BMP180;55953;51.650;-0.522;2022-10-20T04:43:32;99951.80;;;16.00
68911;BMP180;55953;51.650;-0.522;2022-10-20T04:46:04;99951.00;;;15.98
68911;BMP180;55953;51.650;-0.522;2022-10-20T04:48:36;99946.60;;;15.90
68911;BMP180;55953;51.650;-0.522;2022-10-20T04:51:10;99953.80;;;15.90
68911;BMP180;55953;51.650;-0.522;2022-10-20T04:53:38;99951.40;;;15.90
68911;BMP180;55953;51.650;-0.522;2022-10-20T04:56:10;99957.00;;;15.90
68911;BMP180;55953;51.650;-0.522;2022-10-20T04:58:39;99955.00;;;15.90
68911;BMP180;55953;51.650;-0.522;2022-10-20T05:01:08;99955.40;;;15.98
68911;BMP180;55953;51.650;-0.522;2022-10-20T05:03:36;99951.00;;;16.00
68911;BMP180;55953;51.650;-0.522;2022-10-20T05:08:35;99945.20;;;16.02
68911;BMP180;55953;51.650;-0.522;2022-10-20T05:11:03;99943.20;;;16.10
68911;BMP180;55953;51.650;-0.522;2022-10-20T05:13:31;99939.80;;;16.10
68911;BMP180;55953;51.650;-0.522;2022-10-20T05:15:59;99932.40;;;16.04
68911;BMP180;55953;51.650;-0.522;2022-10-20T05:18:28;99933.80;;;16.00
68911;BMP180;55953;51.650;-0.522;2022-10-20T05:20:56;99921.40;;;16.10
68911;BMP180;55953;51.650;-0.522;2022-10-20T05:23:38;99913.80;;;16.20
68911;BMP180;55953;51.650;-0.522;2022-10-20T05:26:14;99911.20;;;16.20
68911;BMP180;55953;51.650;-0.522;2022-10-20T05:28:46;99905.00;;;16.10
68911;BMP180;55953;51.650;-0.522;2022-10-20T05:31:17;99899.00;;;16.02
68911;BMP180;55953;51.650;-0.522;2022-10-20T05:33:49;99901.40;;;16.00
68911;BMP180;55953;51.650;-0.522;2022-10-20T05:36:21;99900.80;;;15.90
68911;BMP180;55953;51.650;-0.522;2022-10-20T05:38:52;99888.80;;;15.80
68911;BMP180;55953;51.650;-0.522;2022-10-20T05:41:24;99885.40;;;15.70
68911;BMP180;55953;51.650;-0.522;2022-10-20T05:43:57;99888.00;;;15.80
68911;BMP180;55953;51.650;-0.522;2022-10-20T05:46:28;99892.20;;;15.96
68911;BMP180;55953;51.650;-0.522;2022-10-20T05:49:00;99883.00;;;16.00
68911;BMP180;55953;51.650;-0.522;2022-10-20T05:51:33;99880.40;;;16.08
68911;BMP180;55953;51.650;-0.522;2022-10-20T05:54:02;99882.00;;;16.10
68911;BMP180;55953;51.650;-0.522;2022-10-20T05:56:31;99884.60;;;16.10
68911;BMP180;55953;51.650;-0.522;2022-10-20T05:59:00;99884.60;;;16.20
68911;BMP180;55953;51.650;-0.522;2022-10-20T06:01:30;99879.00;;;16.30
68911;BMP180;55953;51.650;-0.522;2022-10-20T06:04:20;99880.40;;;16.20
68911;BMP180;55953;51.650;-0.522;2022-10-20T06:06:52;99880.40;;;16.14
68911;BMP180;55953;51.650;-0.522;2022-10-20T06:09:22;99889.00;;;16.20
68911;BMP180;55953;51.650;-0.522;2022-10-20T06:11:52;99887.60;;;16.20
68911;BMP180;55953;51.650;-0.522;2022-10-20T06:14:20;99881.20;;;16.10
68911;BMP180;55953;51.650;-0.522;2022-10-20T06:16:51;99870.60;;;16.04
68911;BMP180;55953;51.650;-0.522;2022-10-20T06:19:24;99875.60;;;16.00
68911;BMP180;55953;51.650;-0.522;2022-10-20T06:21:52;99876.80;;;16.00
68911;BMP180;55953;51.650;-0.522;2022-10-20T06:24:20;99870.80;;;16.06
68911;BMP180;55953;51.650;-0.522;2022-10-20T06:26:48;99876.00;;;16.20
68911;BMP180;55953;51.650;-0.522;2022-10-20T06:29:19;99872.60;;;16.30
68911;BMP180;55953;51.650;-0.522;2022-10-20T06:31:49;99870.80;;;16.30
68911;BMP180;55953;51.650;-0.522;2022-10-20T06:34:22;99871.00;;;16.30
68911;BMP180;55953;51.650;-0.522;2022-10-20T06:36:52;99865.00;;;16.30
68911;BMP180;55953;51.650;-0.522;2022-10-20T06:39:22;99868.20;;;16.20
68911;BMP180;55953;51.650;-0.522;2022-10-20T06:41:57;99866.60;;;16.30
68911;BMP180;55953;51.650;-0.522;2022-10-20T06:44:29;99865.40;;;16.30
68911;BMP180;55953;51.650;-0.522;2022-10-20T06:46:57;99862.60;;;16.30
68911;BMP180;55953;51.650;-0.522;2022-10-20T06:49:25;99860.20;;;16.30
68911;BMP180;55953;51.650;-0.522;2022-10-20T06:51:53;99849.00;;;16.30
68911;BMP180;55953;51.650;-0.522;2022-10-20T06:54:21;99851.00;;;16.20
68911;BMP180;55953;51.650;-0.522;2022-10-20T06:56:49;99851.80;;;16.30
68911;BMP180;55953;51.650;-0.522;2022-10-20T06:59:17;99846.60;;;16.30
68911;BMP180;55953;51.650;-0.522;2022-10-20T07:01:45;99845.20;;;16.30
68911;BMP180;55953;51.650;-0.522;2022-10-20T07:04:15;99840.40;;;16.30
68911;BMP180;55953;51.650;-0.522;2022-10-20T07:06:45;99837.00;;;16.30
68911;BMP180;55953;51.650;-0.522;2022-10-20T07:09:17;99832.40;;;16.40
68911;BMP180;55953;51.650;-0.522;2022-10-20T07:11:50;99833.60;;;16.40
68911;BMP180;55953;51.650;-0.522;2022-10-20T07:14:19;99837.60;;;16.40
68911;BMP180;55953;51.650;-0.522;2022-10-20T07:16:47;99830.60;;;16.50
68911;BMP180;55953;51.650;-0.522;2022-10-20T07:19:15;99834.00;;;16.50
68911;BMP180;55953;51.650;-0.522;2022-10-20T07:21:44;99830.40;;;16.40
68911;BMP180;55953;51.650;-0.522;2022-10-20T07:24:13;99826.60;;;16.50
68911;BMP180;55953;51.650;-0.522;2022-10-20T07:26:42;99826.40;;;16.50
68911;BMP180;55953;51.650;-0.522;2022-10-20T07:29:11;99821.20;;;16.40
68911;BMP180;55953;51.650;-0.522;2022-10-20T07:31:43;99823.00;;;16.30
68911;BMP180;55953;51.650;-0.522;2022-10-20T07:34:15;99818.80;;;16.34
68911;BMP180;55953;51.650;-0.522;2022-10-20T07:36:55;99824.40;;;16.30
68911;BMP180;55953;51.650;-0.522;2022-10-20T07:39:24;99823.40;;;16.30
68911;BMP180;55953;51.650;-0.522;2022-10-20T07:41:52;99824.20;;;16.30
68911;BMP180;55953;51.650;-0.522;2022-10-20T07:44:21;99825.00;;;16.20
68911;BMP180;55953;51.650;-0.522;2022-10-20T07:46:49;99824.80;;;16.24
68911;BMP180;55953;51.650;-0.522;2022-10-20T07:49:18;99828.00;;;16.30
68911;BMP180;55953;51.650;-0.522;2022-10-20T07:52:06;99823.00;;;16.30
68911;BMP180;55953;51.650;-0.522;2022-10-20T07:54:34;99820.20;;;16.30
68911;BMP180;55953;51.650;-0.522;2022-10-20T07:57:02;99822.80;;;16.30
68911;BMP180;55953;51.650;-0.522;2022-10-20T07:59:30;99824.80;;;16.28
68911;BMP180;55953;51.650;-0.522;2022-10-20T08:01:58;99821.20;;;16.30
68911;BMP180;55953;51.650;-0.522;2022-10-20T08:04:27;99813.80;;;16.38
68911;BMP180;55953;51.650;-0.522;2022-10-20T08:06:59;99812.20;;;16.30
68911;BMP180;55953;51.650;-0.522;2022-10-20T08:09:27;99823.20;;;16.30
68911;BMP180;55953;51.650;-0.522;2022-10-20T08:11:55;99824.80;;;16.30
68911;BMP180;55953;51.650;-0.522;2022-10-20T08:14:24;99820.60;;;16.30
68911;BMP180;55953;51.650;-0.522;2022-10-20T08:16:54;99821.00;;;16.30
68911;BMP180;55953;51.650;-0.522;2022-10-20T08:19:24;99823.60;;;16.30
68911;BMP180;55953;51.650;-0.522;2022-10-20T08:22:05;99822.80;;;16.30
68911;BMP180;55953;51.650;-0.522;2022-10-20T08:24:34;99826.20;;;16.30
68911;BMP180;55953;51.650;-0.522;2022-10-20T08:27:02;99822.00;;;16.40
68911;BMP180;55953;51.650;-0.522;2022-10-20T08:29:30;99819.00;;;16.30
68911;BMP180;55953;51.650;-0.522;2022-10-20T08:31:58;99812.60;;;16.38
68911;BMP180;55953;51.650;-0.522;2022-10-20T08:34:26;99810.40;;;16.36
68911;BMP180;55953;51.650;-0.522;2022-10-20T08:36:54;99815.80;;;16.30
68911;BMP180;55953;51.650;-0.522;2022-10-20T08:39:22;99809.00;;;16.36
68911;BMP180;55953;51.650;-0.522;2022-10-20T08:41:52;99808.20;;;16.40
68911;BMP180;55953;51.650;-0.522;2022-10-20T08:44:37;99816.20;;;16.40
68911;BMP180;55953;51.650;-0.522;2022-10-20T08:47:31;99819.60;;;16.40
68911;BMP180;55953;51.650;-0.522;2022-10-20T08:50:06;99819.60;;;16.40
68911;BMP180;55953;51.650;-0.522;2022-10-20T08:52:42;99816.60;;;16.50
68911;BMP180;55953;51.650;-0.522;2022-10-20T08:55:21;99815.20;;;16.50
68911;BMP180;55953;51.650;-0.522;2022-10-20T08:57:51;99809.40;;;16.50
68911;BMP180;55953;51.650;-0.522;2022-10-20T09:00:22;99808.20;;;16.40
68911;BMP180;55953;51.650;-0.522;2022-10-20T09:02:51;99797.40;;;16.40
68911;BMP180;55953;51.650;-0.522;2022-10-20T09:05:26;99793.40;;;16.40
68911;BMP180;55953;51.650;-0.522;2022-10-20T09:07:56;99789.00;;;16.50
68911;BMP180;55953;51.650;-0.522;2022-10-20T09:10:37;99796.40;;;16.62
68911;BMP180;55953;51.650;-0.522;2022-10-20T09:13:23;99791.00;;;16.80
68911;BMP180;55953;51.650;-0.522;2022-10-20T09:16:02;99786.40;;;16.80
68911;BMP180;55953;51.650;-0.522;2022-10-20T09:18:32;99787.60;;;16.70
68911;BMP180;55953;51.650;-0.522;2022-10-20T09:21:12;99790.60;;;16.70
68911;BMP180;55953;51.650;-0.522;2022-10-20T09:23:45;99792.80;;;16.70
68911;BMP180;55953;51.650;-0.522;2022-10-20T09:29:20;99800.80;;;16.90
68911;BMP180;55953;51.650;-0.522;2022-10-20T09:31:53;99803.60;;;16.80
68911;BMP180;55953;51.650;-0.522;2022-10-20T09:34:32;99805.40;;;16.80
68911;BMP180;55953;51.650;-0.522;2022-10-20T09:42:29;99790.60;;;17.00
68911;BMP180;55953;51.650;-0.522;2022-10-20T09:45:18;99791.20;;;17.10
68911;BMP180;55953;51.650;-0.522;2022-10-20T09:48:03;99789.00;;;17.20
68911;BMP180;55953;51.650;-0.522;2022-10-20T09:50:39;99792.60;;;17.10
68911;BMP180;55953;51.650;-0.522;2022-10-20T09:53:19;99788.60;;;17.10
68911;BMP180;55953;51.650;-0.522;2022-10-20T09:55:50;99790.00;;;17.20
68911;BMP180;55953;51.650;-0.522;2022-10-20T09:58:25;99785.20;;;17.20
68911;BMP180;55953;51.650;-0.522;2022-10-20T10:01:02;99783.40;;;17.10
68911;BMP180;55953;51.650;-0.522;2022-10-20T10:03:40;99786.20;;;17.10
68911;BMP180;55953;51.650;-0.522;2022-10-20T10:08:59;99782.00;;;17.12
68911;BMP180;55953;51.650;-0.522;2022-10-20T10:11:34;99777.60;;;17.30
68911;BMP180;55953;51.650;-0.522;2022-10-20T10:14:03;99775.40;;;17.36
68911;BMP180;55953;51.650;-0.522;2022-10-20T10:16:40;99775.00;;;17.44
68911;BMP180;55953;51.650;-0.522;2022-10-20T10:19:17;99771.60;;;17.40
68911;BMP180;55953;51.650;-0.522;2022-10-20T10:22:01;99770.00;;;17.50
68911;BMP180;55953;51.650;-0.522;2022-10-20T10:24:44;99767.60;;;17.60
68911;BMP180;55953;51.650;-0.522;2022-10-20T10:27:28;99769.80;;;17.50
68911;BMP180;55953;51.650;-0.522;2022-10-20T10:32:46;99761.60;;;17.40
68911;BMP180;55953;51.650;-0.522;2022-10-20T10:35:33;99762.60;;;17.40
68911;BMP180;55953;51.650;-0.522;2022-10-20T10:38:03;99756.40;;;17.40
68911;BMP180;55953;51.650;-0.522;2022-10-20T10:40:41;99748.80;;;17.24
68911;BMP180;55953;51.650;-0.522;2022-10-20T10:43:35;99740.80;;;17.10
68911;BMP180;55953;51.650;-0.522;2022-10-20T10:46:23;99737.80;;;17.10
68911;BMP180;55953;51.650;-0.522;2022-10-20T10:52:10;99732.00;;;16.70
68911;BMP180;55953;51.650;-0.522;2022-10-20T10:55:00;99735.40;;;16.60
68911;BMP180;55953;51.650;-0.522;2022-10-20T11:00:19;99742.80;;;16.60
68911;BMP180;55953;51.650;-0.522;2022-10-20T11:02:59;99740.60;;;16.60
68911;BMP180;55953;51.650;-0.522;2022-10-20T11:05:33;99734.80;;;16.60
68911;BMP180;55953;51.650;-0.522;2022-10-20T11:11:51;99732.80;;;16.40
68911;BMP180;55953;51.650;-0.522;2022-10-20T11:20:20;99727.80;;;15.90
68911;BMP180;55953;51.650;-0.522;2022-10-20T11:28:54;99720.60;;;16.10
68911;BMP180;55953;51.650;-0.522;2022-10-20T11:31:39;99712.40;;;16.20
68911;BMP180;55953;51.650;-0.522;2022-10-20T11:34:15;99711.80;;;16.30
68911;BMP180;55953;51.650;-0.522;2022-10-20T11:36:52;99702.20;;;16.42
68911;BMP180;55953;51.650;-0.522;2022-10-20T11:44:51;99708.40;;;16.70
68911;BMP180;55953;51.650;-0.522;2022-10-20T11:47:34;99701.40;;;16.72
68911;BMP180;55953;51.650;-0.522;2022-10-20T11:50:06;99695.00;;;16.82
68911;BMP180;55953;51.650;-0.522;2022-10-20T11:59:31;99683.60;;;16.70
68911;BMP180;55953;51.650;-0.522;2022-10-20T12:05:44;99678.60;;;16.60
68911;BMP180;55953;51.650;-0.522;2022-10-20T12:11:26;99677.80;;;16.40
68911;BMP180;55953;51.650;-0.522;2022-10-20T12:19:49;99673.60;;;16.20
68911;BMP180;55953;51.650;-0.522;2022-10-20T12:27:25;99659.60;;;16.20
68911;BMP180;55953;51.650;-0.522;2022-10-20T12:33:18;99653.20;;;16.10
68911;BMP180;55953;51.650;-0.522;2022-10-20T12:35:58;99655.80;;;16.00
68911;BMP180;55953;51.650;-0.522;2022-10-20T12:38:28;99653.60;;;16.00
68911;BMP180;55953;51.650;-0.522;2022-10-20T12:41:00;99649.40;;;16.04
68911;BMP180;55953;51.650;-0.522;2022-10-20T12:43:47;99646.80;;;16.10
68911;BMP180;55953;51.650;-0.522;2022-10-20T12:46:28;99650.80;;;16.10
68911;BMP180;55953;51.650;-0.522;2022-10-20T12:49:05;99648.60;;;16.20
68911;BMP180;55953;51.650;-0.522;2022-10-20T12:51:52;99637.80;;;16.20
68911;BMP180;55953;51.650;-0.522;2022-10-20T12:59:48;99639.40;;;15.80
68911;BMP180;55953;51.650;-0.522;2022-10-20T13:10:32;99641.20;;;15.70
68911;BMP180;55953;51.650;-0.522;2022-10-20T13:15:48;99669.00;;;15.54
68911;BMP180;55953;51.650;-0.522;2022-10-20T13:18:25;99663.60;;;15.48
68911;BMP180;55953;51.650;-0.522;2022-10-20T13:21:19;99662.80;;;15.50
68911;BMP180;55953;51.650;-0.522;2022-10-20T13:24:12;99657.60;;;15.56
68911;BMP180;55953;51.650;-0.522;2022-10-20T13:29:24;99643.40;;;15.80
68911;BMP180;55953;51.650;-0.522;2022-10-20T13:32:33;99636.40;;;16.00
68911;BMP180;55953;51.650;-0.522;2022-10-20T13:35:56;99632.20;;;16.18
68911;BMP180;55953;51.650;-0.522;2022-10-20T13:38:49;99629.60;;;16.18
68911;BMP180;55953;51.650;-0.522;2022-10-20T13:41:57;99635.60;;;16.20
68911;BMP180;55953;51.650;-0.522;2022-10-20T13:47:55;99637.60;;;16.40
68911;BMP180;55953;51.650;-0.522;2022-10-20T13:50:31;99636.80;;;16.50
68911;BMP180;55953;51.650;-0.522;2022-10-20T13:53:09;99638.40;;;16.70
68911;BMP180;55953;51.650;-0.522;2022-10-20T13:56:07;99636.60;;;16.80
68911;BMP180;55953;51.650;-0.522;2022-10-20T14:01:50;99631.00;;;16.80
68911;BMP180;55953;51.650;-0.522;2022-10-20T14:04:31;99630.40;;;16.80
68911;BMP180;55953;51.650;-0.522;2022-10-20T14:07:05;99635.80;;;16.80
68911;BMP180;55953;51.650;-0.522;2022-10-20T14:09:37;99639.20;;;16.80
68911;BMP180;55953;51.650;-0.522;2022-10-20T14:12:24;99635.40;;;16.80
68911;BMP180;55953;51.650;-0.522;2022-10-20T14:14:57;99643.80;;;16.70
68911;BMP180;55953;51.650;-0.522;2022-10-20T14:17:29;99644.20;;;16.60
68911;BMP180;55953;51.650;-0.522;2022-10-20T14:20:20;99640.20;;;16.50
68911;BMP180;55953;51.650;-0.522;2022-10-20T14:22:50;99637.20;;;16.54
68911;BMP180;55953;51.650;-0.522;2022-10-20T14:25:21;99626.80;;;16.50
68911;BMP180;55953;51.650;-0.522;2022-10-20T14:27:50;99629.60;;;16.50
68911;BMP180;55953;51.650;-0.522;2022-10-20T14:30:21;99633.40;;;16.50
68911;BMP180;55953;51.650;-0.522;2022-10-20T14:32:51;99632.80;;;16.40
68911;BMP180;55953;51.650;-0.522;2022-10-20T14:35:38;99628.60;;;16.40
68911;BMP180;55953;51.650;-0.522;2022-10-20T14:38:22;99624.80;;;16.40
68911;BMP180;55953;51.650;-0.522;2022-10-20T14:40:54;99628.80;;;16.40
68911;BMP180;55953;51.650;-0.522;2022-10-20T14:46:04;99626.00;;;16.30
68911;BMP180;55953;51.650;-0.522;2022-10-20T14:48:43;99626.40;;;16.30
68911;BMP180;55953;51.650;-0.522;2022-10-20T14:51:40;99620.80;;;16.20
68911;BMP180;55953;51.650;-0.522;2022-10-20T14:59:59;99633.20;;;16.10
68911;BMP180;55953;51.650;-0.522;2022-10-20T15:02:37;99637.20;;;16.00
68911;BMP180;55953;51.650;-0.522;2022-10-20T15:05:50;99634.20;;;15.90
68911;BMP180;55953;51.650;-0.522;2022-10-20T15:08:26;99627.40;;;15.90
68911;BMP180;55953;51.650;-0.522;2022-10-20T15:10:58;99619.60;;;15.90
68911;BMP180;55953;51.650;-0.522;2022-10-20T15:13:32;99618.60;;;15.84
68911;BMP180;55953;51.650;-0.522;2022-10-20T15:16:02;99620.80;;;15.80
68911;BMP180;55953;51.650;-0.522;2022-10-20T15:18:31;99620.20;;;15.80
68911;BMP180;55953;51.650;-0.522;2022-10-20T15:21:06;99626.20;;;15.70
68911;BMP180;55953;51.650;-0.522;2022-10-20T15:23:34;99627.60;;;15.64
68911;BMP180;55953;51.650;-0.522;2022-10-20T15:26:13;99629.60;;;15.60
68911;BMP180;55953;51.650;-0.522;2022-10-20T15:28:46;99630.60;;;15.54
68911;BMP180;55953;51.650;-0.522;2022-10-20T15:31:27;99635.40;;;15.50
68911;BMP180;55953;51.650;-0.522;2022-10-20T15:33:57;99645.60;;;15.50
68911;BMP180;55953;51.650;-0.522;2022-10-20T15:36:29;99644.40;;;15.50
68911;BMP180;55953;51.650;-0.522;2022-10-20T15:39:00;99641.00;;;15.50
68911;BMP180;55953;51.650;-0.522;2022-10-20T15:41:32;99642.80;;;15.60
68911;BMP180;55953;51.650;-0.522;2022-10-20T15:44:17;99643.40;;;15.50
68911;BMP180;55953;51.650;-0.522;2022-10-20T15:46:48;99637.00;;;15.60
68911;BMP180;55953;51.650;-0.522;2022-10-20T15:49:16;99635.20;;;15.70
68911;BMP180;55953;51.650;-0.522;2022-10-20T15:51:46;99637.80;;;15.70
68911;BMP180;55953;51.650;-0.522;2022-10-20T15:54:18;99629.40;;;15.70
68911;BMP180;55953;51.650;-0.522;2022-10-20T15:56:47;99633.60;;;15.60
68911;BMP180;55953;51.650;-0.522;2022-10-20T15:59:15;99641.20;;;15.50
68911;BMP180;55953;51.650;-0.522;2022-10-20T16:01:42;99640.20;;;15.40
68911;BMP180;55953;51.650;-0.522;2022-10-20T16:04:23;99639.60;;;15.40
68911;BMP180;55953;51.650;-0.522;2022-10-20T16:06:54;99640.20;;;15.40
68911;BMP180;55953;51.650;-0.522;2022-10-20T16:09:28;99642.80;;;15.40
68911;BMP180;55953;51.650;-0.522;2022-10-20T16:11:56;99646.40;;;15.40
68911;BMP180;55953;51.650;-0.522;2022-10-20T16:14:24;99644.40;;;15.30
68911;BMP180;55953;51.650;-0.522;2022-10-20T16:16:52;99648.00;;;15.30
68911;BMP180;55953;51.650;-0.522;2022-10-20T16:19:20;99649.40;;;15.10
68911;BMP180;55953;51.650;-0.522;2022-10-20T16:21:48;99648.40;;;15.00
68911;BMP180;55953;51.650;-0.522;2022-10-20T16:24:16;99650.60;;;15.00
68911;BMP180;55953;51.650;-0.522;2022-10-20T16:26:44;99658.20;;;14.90
68911;BMP180;55953;51.650;-0.522;2022-10-20T16:29:11;99650.20;;;14.82
68911;BMP180;55953;51.650;-0.522;2022-10-20T16:31:39;99650.00;;;14.80
68911;BMP180;55953;51.650;-0.522;2022-10-20T16:34:07;99652.20;;;14.80
68911;BMP180;55953;51.650;-0.522;2022-10-20T16:36:35;99648.20;;;14.70
68911;BMP180;55953;51.650;-0.522;2022-10-20T16:39:05;99638.80;;;14.70
68911;BMP180;55953;51.650;-0.522;2022-10-20T16:41:33;99643.20;;;14.70
68911;BMP180;55953;51.650;-0.522;2022-10-20T16:44:01;99645.60;;;14.54
68911;BMP180;55953;51.650;-0.522;2022-10-20T16:46:29;99647.20;;;14.50